EDDHEKRN

Guest
Details From EDDH - Hamburg
To EKRN - Bornholm Ronne
Flight Number -
Tags Generated
Created
Modified
Stats Distance 187 nm / 347 km
Max Altitude 0 ft / 0 m
Waypoints 2
Social Downloads 1
Likes 0
Share VATSIM

Download

Looking for another format? Having issues loading an existing format? Contact us
Advertisement - Login to hide

Notes

Generated

Route

EDDH EKRN

ID Type Via Altitude Latitude Longitude Leg Dist Tot Dist Heading (true) Name
O EDDH APT - 0 ft / 0 m 53.65441˚ 9.97521˚ - 0 nm - -
O EKRN APT - 0 ft / 0 m 55.06709˚ 14.74438˚ 187 nm 187 nm 61° / 65° -

Altitude Profile

Advertisement - Login to hide

Weather


0- 5 10 15 20 25 30 35+ Temperature / ° C

Clouds and Precipitation
Forecast for 2018-05-27 12:00 UTC. Updated 3 hours ago

Ground ~20,000 ft ~40,000 ft Winds

EDDH

Details ICAO EDDH (HAM)
Name Hamburg
Region Germany - Civil
Timezone Europe/Berlin (UTC+2.0)
Stats Elevation 53 ft / 16 m (AMSL)
Location 53.633665° 9.985235°
Runways 2
Magnetic Variation 2.849° E

METAR

EDDH 271320Z 05011KT 9999 FEW040 23/13 Q1021 NOSIG

Decode

TAF

TAF EDDH 271100Z 2712/2818 06010KT 9999 FEW040 PROB30 TEMPO 2719/2806 4000 TSRA BKN030CB BECMG 2721/2723 07005KT

Decode

Departure Runways

ID Width Length Bearing (true) Bearing (mag) Surface Threshold Offset Overrun Length
05 151 ft / 46 m 10,647 ft / 3,245 m 50.18° 47.33° Asphalt 978 ft / 298 m 194 ft / 59 m
15 151 ft / 46 m 12,013 ft / 3,662 m 152.89° 150.04° Asphalt 0 ft / 0 m 194 ft / 59 m
23 151 ft / 46 m 10,647 ft / 3,245 m 230.22° 227.37° Asphalt 509 ft / 155 m 240 ft / 73 m
33 151 ft / 46 m 12,013 ft / 3,662 m 332.91° 330.06° Asphalt 1,463 ft / 446 m 164 ft / 50 m

EKRN

Details ICAO EKRN (RNN)
Name Bornholm Ronne
Region Denmark / Faroe Islands
Timezone Europe/Copenhagen (UTC+2.0)
Stats Elevation 52 ft / 16 m (AMSL)
Location 55.063265° 14.759558°
Runways 1
Magnetic Variation 4.446° E

METAR

EKRN 271320Z 07014KT 9999 NSC 19/15 Q1024

Decode

TAF

Not found

Destination Runways

ID Width Length Bearing (true) Bearing (mag) Surface Threshold Offset Overrun Length
11 164 ft / 50 m 6,551 ft / 1,997 m 113.76° 109.31° Asphalt 0 ft / 0 m 197 ft / 60 m
29 164 ft / 50 m 6,551 ft / 1,997 m 293.78° 289.33° Asphalt 0 ft / 0 m 0 ft / 0 m

Approach Navaids

Runway Type Ident Frequency Range Bearing (true) Bearing (mag) Slope Elevation
11 Localiser IAR 109.35 MHz 18 nm / 33 km 113.78° 109.33° - 52 ft / 16 m (AMSL)
11 Glidescope IAR 109.35 MHz 10 nm / 19 km 113.77° 109.32° 3.00° 52 ft / 16 m (AMSL)
11 DME IAR 109.35 MHz 18 nm / 33 km - - - 52 ft / 16 m (AMSL)
29 Localiser IRE 110.30 MHz 18 nm / 33 km 295.54° 291.10° - 52 ft / 16 m (AMSL)
29 Glidescope IRE 110.30 MHz 10 nm / 19 km 293.77° 289.32° 3.00° 52 ft / 16 m (AMSL)
29 DME IRE 110.30 MHz 18 nm / 33 km - - - 55 ft / 17 m (AMSL)

Popular Alternatives